sensor_id;sensor_type;location;lat;lon;timestamp;P1;durP1;ratioP1;P2;durP2;ratioP2
41309;SDS011;27057;51.438;-0.010;2023-07-08T00:00:11;20.02;;;7.28;;
41309;SDS011;27057;51.438;-0.010;2023-07-08T00:02:49;15.02;;;6.90;;
41309;SDS011;27057;51.438;-0.010;2023-07-08T00:05:19;19.02;;;7.95;;
41309;SDS011;27057;51.438;-0.010;2023-07-08T00:07:48;17.23;;;6.32;;
41309;SDS011;27057;51.438;-0.010;2023-07-08T00:12:49;15.40;;;6.28;;
41309;SDS011;27057;51.438;-0.010;2023-07-08T00:15:21;15.45;;;7.20;;
41309;SDS011;27057;51.438;-0.010;2023-07-08T00:17:53;15.70;;;7.30;;
41309;SDS011;27057;51.438;-0.010;2023-07-08T00:22:55;18.48;;;8.90;;
41309;SDS011;27057;51.438;-0.010;2023-07-08T00:25:23;27.10;;;9.75;;
41309;SDS011;27057;51.438;-0.010;2023-07-08T00:27:50;26.30;;;9.27;;
41309;SDS011;27057;51.438;-0.010;2023-07-08T00:30:20;18.67;;;9.02;;
41309;SDS011;27057;51.438;-0.010;2023-07-08T00:32:49;26.00;;;8.68;;
41309;SDS011;27057;51.438;-0.010;2023-07-08T00:35:21;17.85;;;8.00;;
41309;SDS011;27057;51.438;-0.010;2023-07-08T00:37:52;21.38;;;8.45;;
41309;SDS011;27057;51.438;-0.010;2023-07-08T00:40:21;15.43;;;6.97;;
41309;SDS011;27057;51.438;-0.010;2023-07-08T00:42:49;25.67;;;8.15;;
41309;SDS011;27057;51.438;-0.010;2023-07-08T00:50:52;26.48;;;7.68;;
41309;SDS011;27057;51.438;-0.010;2023-07-08T00:53:30;18.05;;;6.93;;
41309;SDS011;27057;51.438;-0.010;2023-07-08T00:56:12;25.67;;;8.23;;
41309;SDS011;27057;51.438;-0.010;2023-07-08T00:58:49;16.67;;;6.82;;
41309;SDS011;27057;51.438;-0.010;2023-07-08T01:01:26;16.52;;;6.50;;
41309;SDS011;27057;51.438;-0.010;2023-07-08T01:03:56;19.23;;;7.15;;
41309;SDS011;27057;51.438;-0.010;2023-07-08T01:06:28;25.98;;;7.45;;
41309;SDS011;27057;51.438;-0.010;2023-07-08T01:09:01;22.05;;;7.55;;
41309;SDS011;27057;51.438;-0.010;2023-07-08T01:11:32;14.93;;;7.63;;
41309;SDS011;27057;51.438;-0.010;2023-07-08T01:14:02;20.40;;;7.28;;
41309;SDS011;27057;51.438;-0.010;2023-07-08T01:16:33;19.55;;;7.80;;
41309;SDS011;27057;51.438;-0.010;2023-07-08T01:19:01;24.10;;;7.53;;
41309;SDS011;27057;51.438;-0.010;2023-07-08T01:24:09;12.93;;;6.38;;
41309;SDS011;27057;51.438;-0.010;2023-07-08T01:26:40;16.80;;;7.47;;
41309;SDS011;27057;51.438;-0.010;2023-07-08T01:29:11;14.13;;;7.57;;
41309;SDS011;27057;51.438;-0.010;2023-07-08T01:31:39;14.70;;;7.45;;
41309;SDS011;27057;51.438;-0.010;2023-07-08T01:34:08;15.10;;;7.45;;
41309;SDS011;27057;51.438;-0.010;2023-07-08T01:36:38;22.15;;;8.10;;
41309;SDS011;27057;51.438;-0.010;2023-07-08T01:39:13;18.95;;;7.90;;
41309;SDS011;27057;51.438;-0.010;2023-07-08T01:41:44;20.73;;;7.43;;
41309;SDS011;27057;51.438;-0.010;2023-07-08T01:44:22;27.10;;;7.43;;
41309;SDS011;27057;51.438;-0.010;2023-07-08T01:49:18;18.48;;;7.75;;
41309;SDS011;27057;51.438;-0.010;2023-07-08T01:51:47;14.73;;;6.78;;
41309;SDS011;27057;51.438;-0.010;2023-07-08T01:54:16;15.45;;;6.78;;
41309;SDS011;27057;51.438;-0.010;2023-07-08T01:56:43;13.65;;;6.88;;
41309;SDS011;27057;51.438;-0.010;2023-07-08T01:59:11;14.27;;;6.93;;
41309;SDS011;27057;51.438;-0.010;2023-07-08T02:04:16;16.17;;;7.07;;
41309;SDS011;27057;51.438;-0.010;2023-07-08T02:06:43;16.92;;;7.53;;
41309;SDS011;27057;51.438;-0.010;2023-07-08T02:09:18;16.30;;;7.43;;
41309;SDS011;27057;51.438;-0.010;2023-07-08T02:11:45;25.00;;;7.68;;
41309;SDS011;27057;51.438;-0.010;2023-07-08T02:14:13;16.15;;;7.15;;
41309;SDS011;27057;51.438;-0.010;2023-07-08T02:16:41;17.70;;;7.20;;
41309;SDS011;27057;51.438;-0.010;2023-07-08T02:19:09;21.70;;;8.32;;
41309;SDS011;27057;51.438;-0.010;2023-07-08T02:21:37;23.85;;;8.30;;
41309;SDS011;27057;51.438;-0.010;2023-07-08T02:24:06;18.17;;;7.72;;
41309;SDS011;27057;51.438;-0.010;2023-07-08T02:26:35;19.08;;;7.90;;
41309;SDS011;27057;51.438;-0.010;2023-07-08T02:29:02;23.77;;;8.70;;
41309;SDS011;27057;51.438;-0.010;2023-07-08T02:31:30;21.70;;;9.52;;
41309;SDS011;27057;51.438;-0.010;2023-07-08T02:33:57;20.13;;;7.22;;
41309;SDS011;27057;51.438;-0.010;2023-07-08T02:36:25;14.73;;;6.88;;
41309;SDS011;27057;51.438;-0.010;2023-07-08T02:38:54;17.15;;;7.80;;
41309;SDS011;27057;51.438;-0.010;2023-07-08T02:41:22;14.75;;;6.38;;
41309;SDS011;27057;51.438;-0.010;2023-07-08T02:43:49;20.70;;;6.85;;
41309;SDS011;27057;51.438;-0.010;2023-07-08T02:46:17;19.83;;;7.70;;
41309;SDS011;27057;51.438;-0.010;2023-07-08T02:48:47;15.32;;;6.53;;
41309;SDS011;27057;51.438;-0.010;2023-07-08T02:51:14;15.65;;;7.05;;
41309;SDS011;27057;51.438;-0.010;2023-07-08T02:53:43;17.25;;;7.65;;
41309;SDS011;27057;51.438;-0.010;2023-07-08T02:56:10;14.20;;;6.97;;
41309;SDS011;27057;51.438;-0.010;2023-07-08T02:58:38;18.15;;;7.57;;
41309;SDS011;27057;51.438;-0.010;2023-07-08T03:01:06;16.58;;;7.38;;
41309;SDS011;27057;51.438;-0.010;2023-07-08T03:03:35;27.95;;;8.27;;
41309;SDS011;27057;51.438;-0.010;2023-07-08T03:06:03;16.88;;;7.05;;
41309;SDS011;27057;51.438;-0.010;2023-07-08T03:08:34;21.60;;;8.13;;
41309;SDS011;27057;51.438;-0.010;2023-07-08T03:11:02;17.17;;;6.40;;
41309;SDS011;27057;51.438;-0.010;2023-07-08T03:13:32;15.15;;;7.35;;
41309;SDS011;27057;51.438;-0.010;2023-07-08T03:16:02;19.05;;;6.93;;
41309;SDS011;27057;51.438;-0.010;2023-07-08T03:18:39;16.48;;;6.93;;
41309;SDS011;27057;51.438;-0.010;2023-07-08T03:21:21;14.90;;;6.50;;
41309;SDS011;27057;51.438;-0.010;2023-07-08T03:24:03;14.35;;;7.07;;
41309;SDS011;27057;51.438;-0.010;2023-07-08T03:26:31;19.20;;;7.43;;
41309;SDS011;27057;51.438;-0.010;2023-07-08T03:29:01;11.98;;;6.50;;
41309;SDS011;27057;51.438;-0.010;2023-07-08T03:31:30;18.92;;;6.85;;
41309;SDS011;27057;51.438;-0.010;2023-07-08T03:33:59;19.70;;;7.07;;
41309;SDS011;27057;51.438;-0.010;2023-07-08T03:36:28;23.50;;;8.75;;
41309;SDS011;27057;51.438;-0.010;2023-07-08T03:38:56;17.23;;;6.93;;
41309;SDS011;27057;51.438;-0.010;2023-07-08T03:41:24;14.43;;;7.15;;
41309;SDS011;27057;51.438;-0.010;2023-07-08T03:43:54;14.75;;;7.00;;
41309;SDS011;27057;51.438;-0.010;2023-07-08T03:46:25;23.45;;;6.78;;
41309;SDS011;27057;51.438;-0.010;2023-07-08T03:48:53;15.13;;;7.72;;
41309;SDS011;27057;51.438;-0.010;2023-07-08T03:53:53;23.52;;;6.40;;
41309;SDS011;27057;51.438;-0.010;2023-07-08T03:56:22;15.48;;;7.25;;
41309;SDS011;27057;51.438;-0.010;2023-07-08T03:58:50;19.33;;;7.53;;
41309;SDS011;27057;51.438;-0.010;2023-07-08T04:01:21;18.30;;;7.40;;
41309;SDS011;27057;51.438;-0.010;2023-07-08T04:03:59;20.83;;;7.47;;
41309;SDS011;27057;51.438;-0.010;2023-07-08T04:06:27;19.48;;;7.10;;
41309;SDS011;27057;51.438;-0.010;2023-07-08T04:09:01;14.20;;;7.05;;
41309;SDS011;27057;51.438;-0.010;2023-07-08T04:11:28;25.17;;;6.82;;
41309;SDS011;27057;51.438;-0.010;2023-07-08T04:13:56;21.90;;;7.15;;
41309;SDS011;27057;51.438;-0.010;2023-07-08T04:16:31;15.50;;;6.75;;
41309;SDS011;27057;51.438;-0.010;2023-07-08T04:19:09;15.90;;;6.90;;
41309;SDS011;27057;51.438;-0.010;2023-07-08T04:21:42;13.52;;;7.22;;
41309;SDS011;27057;51.438;-0.010;2023-07-08T04:24:11;14.98;;;7.90;;
41309;SDS011;27057;51.438;-0.010;2023-07-08T04:26:42;11.35;;;6.45;;
41309;SDS011;27057;51.438;-0.010;2023-07-08T04:29:14;12.82;;;6.88;;
41309;SDS011;27057;51.438;-0.010;2023-07-08T04:31:43;12.80;;;6.95;;
41309;SDS011;27057;51.438;-0.010;2023-07-08T04:34:15;13.68;;;5.55;;
41309;SDS011;27057;51.438;-0.010;2023-07-08T04:36:43;15.43;;;6.50;;
41309;SDS011;27057;51.438;-0.010;2023-07-08T04:39:14;16.92;;;5.70;;
41309;SDS011;27057;51.438;-0.010;2023-07-08T04:41:42;12.02;;;5.20;;
41309;SDS011;27057;51.438;-0.010;2023-07-08T04:44:11;11.93;;;5.65;;
41309;SDS011;27057;51.438;-0.010;2023-07-08T04:46:45;15.57;;;5.60;;
41309;SDS011;27057;51.438;-0.010;2023-07-08T04:49:18;12.10;;;5.07;;
41309;SDS011;27057;51.438;-0.010;2023-07-08T04:51:46;15.02;;;5.40;;
41309;SDS011;27057;51.438;-0.010;2023-07-08T04:54:14;11.07;;;5.15;;
41309;SDS011;27057;51.438;-0.010;2023-07-08T04:56:43;10.18;;;4.95;;
41309;SDS011;27057;51.438;-0.010;2023-07-08T04:59:14;17.00;;;5.18;;
41309;SDS011;27057;51.438;-0.010;2023-07-08T05:01:43;8.80;;;4.85;;
41309;SDS011;27057;51.438;-0.010;2023-07-08T05:04:17;13.88;;;4.50;;
41309;SDS011;27057;51.438;-0.010;2023-07-08T05:06:46;15.20;;;5.53;;
41309;SDS011;27057;51.438;-0.010;2023-07-08T05:09:14;15.48;;;5.45;;
41309;SDS011;27057;51.438;-0.010;2023-07-08T05:11:43;12.50;;;5.10;;
41309;SDS011;27057;51.438;-0.010;2023-07-08T05:14:11;13.85;;;4.97;;
41309;SDS011;27057;51.438;-0.010;2023-07-08T05:16:40;10.57;;;6.10;;
41309;SDS011;27057;51.438;-0.010;2023-07-08T05:19:07;16.42;;;5.97;;
41309;SDS011;27057;51.438;-0.010;2023-07-08T05:21:35;14.75;;;5.78;;
41309;SDS011;27057;51.438;-0.010;2023-07-08T05:24:05;10.95;;;5.68;;
41309;SDS011;27057;51.438;-0.010;2023-07-08T05:26:33;10.63;;;4.80;;
41309;SDS011;27057;51.438;-0.010;2023-07-08T05:29:00;11.73;;;5.10;;
41309;SDS011;27057;51.438;-0.010;2023-07-08T05:31:28;11.20;;;5.47;;
41309;SDS011;27057;51.438;-0.010;2023-07-08T05:33:59;20.48;;;5.72;;
41309;SDS011;27057;51.438;-0.010;2023-07-08T05:36:26;17.65;;;5.22;;
41309;SDS011;27057;51.438;-0.010;2023-07-08T05:38:54;11.18;;;4.78;;
41309;SDS011;27057;51.438;-0.010;2023-07-08T05:41:21;18.65;;;5.13;;
41309;SDS011;27057;51.438;-0.010;2023-07-08T05:43:49;11.68;;;4.78;;
41309;SDS011;27057;51.438;-0.010;2023-07-08T05:46:16;15.52;;;5.13;;
41309;SDS011;27057;51.438;-0.010;2023-07-08T05:48:44;11.68;;;5.20;;
41309;SDS011;27057;51.438;-0.010;2023-07-08T05:51:11;8.48;;;4.32;;
41309;SDS011;27057;51.438;-0.010;2023-07-08T05:53:38;13.00;;;4.90;;
41309;SDS011;27057;51.438;-0.010;2023-07-08T05:56:06;9.98;;;4.63;;
41309;SDS011;27057;51.438;-0.010;2023-07-08T05:58:33;15.15;;;4.60;;
41309;SDS011;27057;51.438;-0.010;2023-07-08T06:01:01;12.30;;;4.95;;
41309;SDS011;27057;51.438;-0.010;2023-07-08T06:03:29;11.50;;;4.43;;
41309;SDS011;27057;51.438;-0.010;2023-07-08T06:05:56;7.07;;;3.95;;
41309;SDS011;27057;51.438;-0.010;2023-07-08T06:08:24;11.40;;;4.75;;
41309;SDS011;27057;51.438;-0.010;2023-07-08T06:10:51;8.50;;;4.28;;
41309;SDS011;27057;51.438;-0.010;2023-07-08T06:13:19;15.90;;;4.47;;
41309;SDS011;27057;51.438;-0.010;2023-07-08T06:15:47;10.85;;;4.63;;
41309;SDS011;27057;51.438;-0.010;2023-07-08T06:18:14;12.02;;;4.75;;
41309;SDS011;27057;51.438;-0.010;2023-07-08T06:20:41;17.95;;;4.55;;
41309;SDS011;27057;51.438;-0.010;2023-07-08T06:23:17;13.25;;;4.38;;
41309;SDS011;27057;51.438;-0.010;2023-07-08T06:25:44;9.32;;;4.32;;
41309;SDS011;27057;51.438;-0.010;2023-07-08T06:28:12;18.13;;;4.68;;
41309;SDS011;27057;51.438;-0.010;2023-07-08T06:30:39;13.70;;;4.57;;
41309;SDS011;27057;51.438;-0.010;2023-07-08T06:33:06;11.85;;;4.30;;
41309;SDS011;27057;51.438;-0.010;2023-07-08T06:35:34;13.48;;;4.95;;
41309;SDS011;27057;51.438;-0.010;2023-07-08T06:38:02;9.98;;;4.50;;
41309;SDS011;27057;51.438;-0.010;2023-07-08T06:40:29;16.02;;;4.32;;
41309;SDS011;27057;51.438;-0.010;2023-07-08T06:42:57;14.80;;;4.32;;
41309;SDS011;27057;51.438;-0.010;2023-07-08T06:45:43;15.75;;;4.10;;
41309;SDS011;27057;51.438;-0.010;2023-07-08T06:48:11;12.63;;;5.28;;
41309;SDS011;27057;51.438;-0.010;2023-07-08T06:50:41;14.15;;;4.95;;
41309;SDS011;27057;51.438;-0.010;2023-07-08T06:53:10;11.65;;;3.78;;
41309;SDS011;27057;51.438;-0.010;2023-07-08T06:55:37;14.52;;;5.20;;
41309;SDS011;27057;51.438;-0.010;2023-07-08T06:58:05;14.07;;;4.97;;
41309;SDS011;27057;51.438;-0.010;2023-07-08T07:00:33;11.38;;;4.72;;
41309;SDS011;27057;51.438;-0.010;2023-07-08T07:03:02;19.38;;;6.07;;
41309;SDS011;27057;51.438;-0.010;2023-07-08T07:05:30;16.95;;;5.75;;
41309;SDS011;27057;51.438;-0.010;2023-07-08T07:07:57;16.23;;;5.55;;
41309;SDS011;27057;51.438;-0.010;2023-07-08T07:10:24;13.25;;;4.97;;
41309;SDS011;27057;51.438;-0.010;2023-07-08T07:12:52;11.73;;;4.65;;
41309;SDS011;27057;51.438;-0.010;2023-07-08T07:15:19;11.57;;;4.72;;
41309;SDS011;27057;51.438;-0.010;2023-07-08T07:17:47;12.55;;;4.40;;
41309;SDS011;27057;51.438;-0.010;2023-07-08T07:20:15;19.33;;;4.10;;
41309;SDS011;27057;51.438;-0.010;2023-07-08T07:22:42;15.32;;;4.28;;
41309;SDS011;27057;51.438;-0.010;2023-07-08T07:25:10;12.30;;;5.10;;
41309;SDS011;27057;51.438;-0.010;2023-07-08T07:27:38;11.45;;;4.85;;
41309;SDS011;27057;51.438;-0.010;2023-07-08T07:30:05;10.38;;;4.82;;
41309;SDS011;27057;51.438;-0.010;2023-07-08T07:32:33;17.65;;;5.82;;
41309;SDS011;27057;51.438;-0.010;2023-07-08T07:35:02;9.07;;;4.55;;
41309;SDS011;27057;51.438;-0.010;2023-07-08T07:37:29;9.95;;;4.47;;
41309;SDS011;27057;51.438;-0.010;2023-07-08T07:39:57;17.30;;;4.45;;
41309;SDS011;27057;51.438;-0.010;2023-07-08T07:42:26;14.52;;;4.72;;
41309;SDS011;27057;51.438;-0.010;2023-07-08T07:44:54;15.32;;;4.97;;
41309;SDS011;27057;51.438;-0.010;2023-07-08T07:47:22;9.30;;;4.60;;
41309;SDS011;27057;51.438;-0.010;2023-07-08T07:49:49;12.70;;;4.90;;
41309;SDS011;27057;51.438;-0.010;2023-07-08T07:52:17;14.45;;;4.85;;
41309;SDS011;27057;51.438;-0.010;2023-07-08T07:54:56;12.32;;;5.38;;
41309;SDS011;27057;51.438;-0.010;2023-07-08T07:57:24;14.40;;;5.20;;
41309;SDS011;27057;51.438;-0.010;2023-07-08T07:59:52;12.90;;;4.78;;
41309;SDS011;27057;51.438;-0.010;2023-07-08T08:02:19;14.07;;;4.90;;
41309;SDS011;27057;51.438;-0.010;2023-07-08T08:04:47;15.82;;;4.45;;
41309;SDS011;27057;51.438;-0.010;2023-07-08T08:07:14;15.00;;;5.38;;
41309;SDS011;27057;51.438;-0.010;2023-07-08T08:09:41;10.23;;;4.80;;
41309;SDS011;27057;51.438;-0.010;2023-07-08T08:12:10;9.52;;;4.18;;
41309;SDS011;27057;51.438;-0.010;2023-07-08T08:14:38;10.07;;;4.05;;
41309;SDS011;27057;51.438;-0.010;2023-07-08T08:17:06;7.93;;;3.97;;
41309;SDS011;27057;51.438;-0.010;2023-07-08T08:19:33;15.65;;;4.25;;
41309;SDS011;27057;51.438;-0.010;2023-07-08T08:22:01;13.00;;;5.20;;
41309;SDS011;27057;51.438;-0.010;2023-07-08T08:24:28;22.23;;;5.22;;
41309;SDS011;27057;51.438;-0.010;2023-07-08T08:26:56;17.08;;;6.00;;
41309;SDS011;27057;51.438;-0.010;2023-07-08T08:29:24;13.23;;;5.00;;
41309;SDS011;27057;51.438;-0.010;2023-07-08T08:31:51;15.43;;;5.25;;
41309;SDS011;27057;51.438;-0.010;2023-07-08T08:34:21;13.02;;;4.80;;
41309;SDS011;27057;51.438;-0.010;2023-07-08T08:36:48;10.25;;;4.82;;
41309;SDS011;27057;51.438;-0.010;2023-07-08T08:39:16;12.05;;;4.70;;
41309;SDS011;27057;51.438;-0.010;2023-07-08T08:41:43;21.45;;;5.20;;
41309;SDS011;27057;51.438;-0.010;2023-07-08T08:44:13;15.73;;;5.57;;
41309;SDS011;27057;51.438;-0.010;2023-07-08T08:46:51;14.13;;;4.82;;
41309;SDS011;27057;51.438;-0.010;2023-07-08T08:49:32;18.88;;;5.70;;
41309;SDS011;27057;51.438;-0.010;2023-07-08T08:52:06;25.08;;;6.82;;
41309;SDS011;27057;51.438;-0.010;2023-07-08T08:54:40;13.05;;;5.22;;
41309;SDS011;27057;51.438;-0.010;2023-07-08T08:59:56;10.43;;;5.50;;
41309;SDS011;27057;51.438;-0.010;2023-07-08T09:05:13;11.13;;;5.13;;
41309;SDS011;27057;51.438;-0.010;2023-07-08T09:13:18;12.27;;;6.00;;
41309;SDS011;27057;51.438;-0.010;2023-07-08T09:15:58;11.25;;;5.70;;
41309;SDS011;27057;51.438;-0.010;2023-07-08T09:18:36;11.60;;;5.13;;
41309;SDS011;27057;51.438;-0.010;2023-07-08T09:21:23;16.20;;;5.78;;
41309;SDS011;27057;51.438;-0.010;2023-07-08T09:24:02;20.67;;;5.32;;
41309;SDS011;27057;51.438;-0.010;2023-07-08T09:26:35;14.02;;;5.45;;
41309;SDS011;27057;51.438;-0.010;2023-07-08T09:29:07;17.00;;;5.50;;
41309;SDS011;27057;51.438;-0.010;2023-07-08T09:31:37;13.07;;;5.47;;
41309;SDS011;27057;51.438;-0.010;2023-07-08T09:36:43;15.68;;;5.18;;
41309;SDS011;27057;51.438;-0.010;2023-07-08T09:39:17;17.02;;;5.78;;
41309;SDS011;27057;51.438;-0.010;2023-07-08T09:41:47;14.88;;;5.28;;
41309;SDS011;27057;51.438;-0.010;2023-07-08T09:44:26;7.18;;;4.35;;
41309;SDS011;27057;51.438;-0.010;2023-07-08T09:47:00;10.85;;;4.82;;
41309;SDS011;27057;51.438;-0.010;2023-07-08T09:49:31;17.73;;;5.80;;
41309;SDS011;27057;51.438;-0.010;2023-07-08T09:52:03;11.27;;;5.22;;
41309;SDS011;27057;51.438;-0.010;2023-07-08T09:54:31;10.80;;;4.78;;
41309;SDS011;27057;51.438;-0.010;2023-07-08T09:57:04;12.77;;;4.47;;
41309;SDS011;27057;51.438;-0.010;2023-07-08T09:59:39;8.80;;;4.32;;
41309;SDS011;27057;51.438;-0.010;2023-07-08T10:02:27;8.60;;;4.57;;
41309;SDS011;27057;51.438;-0.010;2023-07-08T10:05:01;18.40;;;4.17;;
41309;SDS011;27057;51.438;-0.010;2023-07-08T10:10:06;8.60;;;4.43;;
41309;SDS011;27057;51.438;-0.010;2023-07-08T10:12:38;12.48;;;4.32;;
41309;SDS011;27057;51.438;-0.010;2023-07-08T10:15:12;9.63;;;4.20;;
41309;SDS011;27057;51.438;-0.010;2023-07-08T10:17:47;10.68;;;4.45;;
41309;SDS011;27057;51.438;-0.010;2023-07-08T10:20:14;9.45;;;3.97;;
41309;SDS011;27057;51.438;-0.010;2023-07-08T10:22:45;11.38;;;4.07;;
41309;SDS011;27057;51.438;-0.010;2023-07-08T10:25:27;14.30;;;4.38;;
41309;SDS011;27057;51.438;-0.010;2023-07-08T10:29:04;9.52;;;3.95;;
41309;SDS011;27057;51.438;-0.010;2023-07-08T10:36:30;10.45;;;3.88;;
41309;SDS011;27057;51.438;-0.010;2023-07-08T10:47:20;15.07;;;3.75;;
41309;SDS011;27057;51.438;-0.010;2023-07-08T10:50:24;7.78;;;2.63;;
41309;SDS011;27057;51.438;-0.010;2023-07-08T10:53:00;10.05;;;4.07;;
41309;SDS011;27057;51.438;-0.010;2023-07-08T10:55:35;13.60;;;5.03;;
41309;SDS011;27057;51.438;-0.010;2023-07-08T10:58:29;10.70;;;4.15;;
41309;SDS011;27057;51.438;-0.010;2023-07-08T11:03:53;8.18;;;4.03;;
41309;SDS011;27057;51.438;-0.010;2023-07-08T11:06:40;10.75;;;5.03;;
41309;SDS011;27057;51.438;-0.010;2023-07-08T11:09:13;17.23;;;4.82;;
41309;SDS011;27057;51.438;-0.010;2023-07-08T11:11:53;8.20;;;4.03;;
41309;SDS011;27057;51.438;-0.010;2023-07-08T11:22:37;16.80;;;5.40;;
41309;SDS011;27057;51.438;-0.010;2023-07-08T11:25:17;13.15;;;5.45;;
41309;SDS011;27057;51.438;-0.010;2023-07-08T11:27:47;18.65;;;5.25;;
41309;SDS011;27057;51.438;-0.010;2023-07-08T11:30:20;10.73;;;4.90;;
41309;SDS011;27057;51.438;-0.010;2023-07-08T11:33:03;11.25;;;3.85;;
41309;SDS011;27057;51.438;-0.010;2023-07-08T11:35:35;14.25;;;4.80;;
41309;SDS011;27057;51.438;-0.010;2023-07-08T11:38:03;10.32;;;3.83;;
41309;SDS011;27057;51.438;-0.010;2023-07-08T11:40:32;10.38;;;3.80;;
41309;SDS011;27057;51.438;-0.010;2023-07-08T11:43:17;15.43;;;5.13;;
41309;SDS011;27057;51.438;-0.010;2023-07-08T11:45:48;11.20;;;4.55;;
41309;SDS011;27057;51.438;-0.010;2023-07-08T11:48:25;11.82;;;4.40;;
41309;SDS011;27057;51.438;-0.010;2023-07-08T11:50:58;12.18;;;4.07;;
41309;SDS011;27057;51.438;-0.010;2023-07-08T11:53:46;10.05;;;3.75;;
41309;SDS011;27057;51.438;-0.010;2023-07-08T11:56:25;16.30;;;4.50;;
41309;SDS011;27057;51.438;-0.010;2023-07-08T11:59:29;14.10;;;4.28;;
41309;SDS011;27057;51.438;-0.010;2023-07-08T12:04:24;6.57;;;4.22;;
41309;SDS011;27057;51.438;-0.010;2023-07-08T12:07:16;16.23;;;5.82;;
41309;SDS011;27057;51.438;-0.010;2023-07-08T12:09:48;17.48;;;6.55;;
41309;SDS011;27057;51.438;-0.010;2023-07-08T12:12:34;18.13;;;5.70;;
41309;SDS011;27057;51.438;-0.010;2023-07-08T12:15:11;17.77;;;5.47;;
41309;SDS011;27057;51.438;-0.010;2023-07-08T12:17:46;17.05;;;5.32;;
41309;SDS011;27057;51.438;-0.010;2023-07-08T12:20:33;18.85;;;5.35;;
41309;SDS011;27057;51.438;-0.010;2023-07-08T12:25:35;15.70;;;4.95;;
41309;SDS011;27057;51.438;-0.010;2023-07-08T12:28:03;19.65;;;5.47;;
41309;SDS011;27057;51.438;-0.010;2023-07-08T12:30:31;13.98;;;5.07;;
41309;SDS011;27057;51.438;-0.010;2023-07-08T12:33:00;10.88;;;4.95;;
41309;SDS011;27057;51.438;-0.010;2023-07-08T12:35:29;14.40;;;5.43;;
41309;SDS011;27057;51.438;-0.010;2023-07-08T12:38:09;9.52;;;4.70;;
41309;SDS011;27057;51.438;-0.010;2023-07-08T12:40:50;15.70;;;5.72;;
41309;SDS011;27057;51.438;-0.010;2023-07-08T12:43:18;12.48;;;4.95;;
41309;SDS011;27057;51.438;-0.010;2023-07-08T12:45:45;15.57;;;4.30;;
41309;SDS011;27057;51.438;-0.010;2023-07-08T12:48:13;10.52;;;4.18;;
41309;SDS011;27057;51.438;-0.010;2023-07-08T12:50:41;17.23;;;4.75;;
41309;SDS011;27057;51.438;-0.010;2023-07-08T12:53:10;11.52;;;4.38;;
41309;SDS011;27057;51.438;-0.010;2023-07-08T12:55:40;10.10;;;4.95;;
41309;SDS011;27057;51.438;-0.010;2023-07-08T12:58:12;15.40;;;5.47;;
41309;SDS011;27057;51.438;-0.010;2023-07-08T13:00:41;10.63;;;4.97;;
41309;SDS011;27057;51.438;-0.010;2023-07-08T13:05:40;23.55;;;4.88;;
41309;SDS011;27057;51.438;-0.010;2023-07-08T13:08:12;14.52;;;5.30;;
41309;SDS011;27057;51.438;-0.010;2023-07-08T13:10:41;23.08;;;6.32;;
41309;SDS011;27057;51.438;-0.010;2023-07-08T13:13:12;21.45;;;5.90;;
41309;SDS011;27057;51.438;-0.010;2023-07-08T13:15:46;20.10;;;9.00;;
41309;SDS011;27057;51.438;-0.010;2023-07-08T13:20:52;19.75;;;7.32;;
41309;SDS011;27057;51.438;-0.010;2023-07-08T13:23:21;14.93;;;5.40;;
41309;SDS011;27057;51.438;-0.010;2023-07-08T13:25:49;14.82;;;6.25;;
41309;SDS011;27057;51.438;-0.010;2023-07-08T13:28:19;9.93;;;5.07;;
41309;SDS011;27057;51.438;-0.010;2023-07-08T13:30:57;16.83;;;5.47;;
41309;SDS011;27057;51.438;-0.010;2023-07-08T13:33:30;18.25;;;5.95;;
41309;SDS011;27057;51.438;-0.010;2023-07-08T13:36:03;17.60;;;5.72;;
41309;SDS011;27057;51.438;-0.010;2023-07-08T13:38:33;18.77;;;5.80;;
41309;SDS011;27057;51.438;-0.010;2023-07-08T13:41:05;10.20;;;5.15;;
41309;SDS011;27057;51.438;-0.010;2023-07-08T13:43:34;13.93;;;5.05;;
41309;SDS011;27057;51.438;-0.010;2023-07-08T13:46:04;11.90;;;4.93;;
41309;SDS011;27057;51.438;-0.010;2023-07-08T13:48:42;11.38;;;5.28;;
41309;SDS011;27057;51.438;-0.010;2023-07-08T13:51:17;15.07;;;4.57;;
41309;SDS011;27057;51.438;-0.010;2023-07-08T13:53:50;11.23;;;5.13;;
41309;SDS011;27057;51.438;-0.010;2023-07-08T13:56:23;9.23;;;4.45;;
41309;SDS011;27057;51.438;-0.010;2023-07-08T13:59:07;10.07;;;4.47;;
41309;SDS011;27057;51.438;-0.010;2023-07-08T14:01:39;9.43;;;4.63;;
41309;SDS011;27057;51.438;-0.010;2023-07-08T14:04:10;13.15;;;5.68;;
41309;SDS011;27057;51.438;-0.010;2023-07-08T14:06:40;9.68;;;4.60;;
41309;SDS011;27057;51.438;-0.010;2023-07-08T14:11:43;11.00;;;4.28;;
41309;SDS011;27057;51.438;-0.010;2023-07-08T14:14:11;11.60;;;4.82;;
41309;SDS011;27057;51.438;-0.010;2023-07-08T14:16:43;11.73;;;4.82;;
41309;SDS011;27057;51.438;-0.010;2023-07-08T14:19:17;13.85;;;5.25;;
41309;SDS011;27057;51.438;-0.010;2023-07-08T14:21:50;14.97;;;6.10;;
41309;SDS011;27057;51.438;-0.010;2023-07-08T14:24:21;11.20;;;6.00;;
41309;SDS011;27057;51.438;-0.010;2023-07-08T14:26:48;12.00;;;6.07;;
41309;SDS011;27057;51.438;-0.010;2023-07-08T14:29:16;15.80;;;6.60;;
41309;SDS011;27057;51.438;-0.010;2023-07-08T14:31:43;13.60;;;5.25;;
41309;SDS011;27057;51.438;-0.010;2023-07-08T14:34:12;12.93;;;5.85;;
41309;SDS011;27057;51.438;-0.010;2023-07-08T14:36:42;16.13;;;5.20;;
41309;SDS011;27057;51.438;-0.010;2023-07-08T14:39:13;16.40;;;5.82;;
41309;SDS011;27057;51.438;-0.010;2023-07-08T14:41:43;17.50;;;5.75;;
41309;SDS011;27057;51.438;-0.010;2023-07-08T14:44:25;16.25;;;6.00;;
41309;SDS011;27057;51.438;-0.010;2023-07-08T14:46:57;13.50;;;5.80;;
41309;SDS011;27057;51.438;-0.010;2023-07-08T14:49:26;15.20;;;6.05;;
41309;SDS011;27057;51.438;-0.010;2023-07-08T14:51:54;12.80;;;5.68;;
41309;SDS011;27057;51.438;-0.010;2023-07-08T14:54:22;14.50;;;5.82;;
41309;SDS011;27057;51.438;-0.010;2023-07-08T14:56:52;12.32;;;5.45;;
41309;SDS011;27057;51.438;-0.010;2023-07-08T14:59:23;12.13;;;5.75;;
41309;SDS011;27057;51.438;-0.010;2023-07-08T15:01:52;10.50;;;5.70;;
41309;SDS011;27057;51.438;-0.010;2023-07-08T15:04:23;14.95;;;4.80;;
41309;SDS011;27057;51.438;-0.010;2023-07-08T15:06:51;14.88;;;5.15;;
41309;SDS011;27057;51.438;-0.010;2023-07-08T15:09:19;11.98;;;5.47;;
41309;SDS011;27057;51.438;-0.010;2023-07-08T15:11:47;17.10;;;5.68;;
41309;SDS011;27057;51.438;-0.010;2023-07-08T15:14:22;17.77;;;5.70;;
41309;SDS011;27057;51.438;-0.010;2023-07-08T15:16:51;14.68;;;5.20;;
41309;SDS011;27057;51.438;-0.010;2023-07-08T15:19:20;9.75;;;5.75;;
41309;SDS011;27057;51.438;-0.010;2023-07-08T15:21:48;11.27;;;5.90;;
41309;SDS011;27057;51.438;-0.010;2023-07-08T15:24:15;14.80;;;6.32;;
41309;SDS011;27057;51.438;-0.010;2023-07-08T15:26:44;12.30;;;5.68;;
41309;SDS011;27057;51.438;-0.010;2023-07-08T15:29:15;12.45;;;5.32;;
41309;SDS011;27057;51.438;-0.010;2023-07-08T15:31:48;13.85;;;5.90;;
41309;SDS011;27057;51.438;-0.010;2023-07-08T15:34:20;9.85;;;5.03;;
41309;SDS011;27057;51.438;-0.010;2023-07-08T15:36:56;18.90;;;6.20;;
41309;SDS011;27057;51.438;-0.010;2023-07-08T15:39:32;10.00;;;5.72;;
41309;SDS011;27057;51.438;-0.010;2023-07-08T15:42:00;16.00;;;5.95;;
41309;SDS011;27057;51.438;-0.010;2023-07-08T15:44:28;12.25;;;6.05;;
41309;SDS011;27057;51.438;-0.010;2023-07-08T15:46:55;12.90;;;6.13;;
41309;SDS011;27057;51.438;-0.010;2023-07-08T15:49:24;15.15;;;6.38;;
41309;SDS011;27057;51.438;-0.010;2023-07-08T15:52:00;14.45;;;5.90;;
41309;SDS011;27057;51.438;-0.010;2023-07-08T15:54:27;12.55;;;5.40;;
41309;SDS011;27057;51.438;-0.010;2023-07-08T15:56:58;13.07;;;4.93;;
41309;SDS011;27057;51.438;-0.010;2023-07-08T16:02:15;10.65;;;5.53;;